Time;durP1;ratioP1;P1;durP2;ratioP2;P2;SDS_P1;SDS_P2;PMS_P1;PMS_P2;Temp;Humidity;BMP_temperature;BMP_pressure;BME280_temperature;BME280_humidity;BME280_pressure;Samples;Min_cycle;Max_cycle;Signal;HPM_P1;HPM_P2
2022/03/31 00:00:32;;;;;;;15.30;8.73;;;;;;;;;;1787066;80;21024;-71
2022/03/31 00:02:59;;;;;;;17.42;9.60;;;;;;;;;;1786870;79;21111;-71
2022/03/31 00:05:26;;;;;;;19.85;10.25;;;;;;;;;;1787082;80;21060;-71
2022/03/31 00:07:53;;;;;;;17.98;8.88;;;;;;;;;;1786689;80;21501;-70
2022/03/31 00:10:30;;;;;;;14.78;8.75;;;;;;;;;;1787052;80;21067;-70
2022/03/31 00:12:58;;;;;;;16.15;8.43;;;;;;;;;;1787035;80;21008;-70
2022/03/31 00:15:30;;;;;;;16.93;8.38;;;;;;;;;;1787139;80;21084;-71
2022/03/31 00:17:55;;;;;;;16.73;9.28;;;;;;;;;;1786477;80;21055;-70
2022/03/31 00:20:22;;;;;;;15.00;7.85;;;;;;;;;;1786999;80;21132;-69
2022/03/31 00:22:49;;;;;;;17.60;9.43;;;;;;;;;;1786915;80;21641;-70
2022/03/31 00:25:15;;;;;;;17.70;9.05;;;;;;;;;;1786925;80;21025;-70
2022/03/31 00:27:42;;;;;;;16.20;9.30;;;;;;;;;;1786824;80;21056;-70
2022/03/31 00:30:10;;;;;;;16.93;9.25;;;;;;;;;;1786689;80;21085;-70
2022/03/31 00:32:37;;;;;;;17.20;8.88;;;;;;;;;;1786868;80;21020;-70
2022/03/31 00:35:04;;;;;;;14.83;7.72;;;;;;;;;;1787081;80;21524;-70
2022/03/31 00:37:31;;;;;;;19.27;9.10;;;;;;;;;;1787170;80;21017;-71
2022/03/31 00:39:58;;;;;;;12.88;7.62;;;;;;;;;;1787109;80;21584;-70
2022/03/31 00:42:24;;;;;;;15.75;8.58;;;;;;;;;;1786964;80;21081;-71
2022/03/31 00:44:51;;;;;;;13.50;6.92;;;;;;;;;;1787092;80;21115;-72
2022/03/31 00:47:18;;;;;;;12.47;7.12;;;;;;;;;;1787169;80;21544;-71
2022/03/31 00:49:44;;;;;;;13.53;6.72;;;;;;;;;;1787152;80;21063;-71
2022/03/31 00:52:11;;;;;;;11.43;6.80;;;;;;;;;;1787158;80;21032;-72
2022/03/31 00:54:40;;;;;;;14.90;7.37;;;;;;;;;;1787326;80;21083;-71
2022/03/31 00:57:06;;;;;;;13.18;7.87;;;;;;;;;;1786785;80;21028;-71
2022/03/31 00:59:33;;;;;;;12.90;7.17;;;;;;;;;;1758820;80;21044;-71
2022/03/31 01:04:48;;;;;;;12.18;7.20;;;;;;;;;;1668010;80;21168;-70
2022/03/31 01:07:15;;;;;;;11.45;7.33;;;;;;;;;;1743608;81;21025;-69
2022/03/31 01:09:42;;;;;;;12.93;7.25;;;;;;;;;;1723893;83;21108;-69
2022/03/31 01:12:09;;;;;;;13.10;7.67;;;;;;;;;;1773035;81;21046;-69
2022/03/31 01:14:35;;;;;;;13.18;7.42;;;;;;;;;;1723875;83;21041;-69
2022/03/31 01:17:02;;;;;;;16.23;8.25;;;;;;;;;;1773653;81;21029;-69
2022/03/31 01:19:28;;;;;;;15.20;8.43;;;;;;;;;;1723942;83;21053;-70
2022/03/31 01:21:55;;;;;;;14.60;8.00;;;;;;;;;;1773450;81;21064;-70
2022/03/31 01:24:22;;;;;;;13.88;8.30;;;;;;;;;;1723900;83;21013;-70
2022/03/31 01:26:48;;;;;;;16.32;9.13;;;;;;;;;;1773500;81;21048;-70
2022/03/31 01:29:14;;;;;;;14.50;8.25;;;;;;;;;;1723890;83;21071;-70
2022/03/31 01:31:41;;;;;;;15.65;8.15;;;;;;;;;;1773612;81;21057;-70
2022/03/31 01:34:07;;;;;;;17.10;8.53;;;;;;;;;;1723955;83;21037;-70
2022/03/31 01:36:35;;;;;;;16.32;8.23;;;;;;;;;;1723973;83;21180;-70
2022/03/31 01:39:01;;;;;;;12.95;7.42;;;;;;;;;;1773479;81;21001;-70
2022/03/31 01:41:28;;;;;;;17.65;8.68;;;;;;;;;;1724098;83;21582;-70
2022/03/31 01:43:54;;;;;;;14.85;8.18;;;;;;;;;;1773146;81;21128;-70
2022/03/31 01:46:20;;;;;;;14.38;9.23;;;;;;;;;;1723960;83;21559;-70
2022/03/31 01:48:46;;;;;;;23.77;14.20;;;;;;;;;;1773148;81;21528;-70
2022/03/31 01:51:14;;;;;;;30.88;18.30;;;;;;;;;;1773232;81;21567;-70
2022/03/31 01:53:41;;;;;;;27.52;14.93;;;;;;;;;;1773352;81;21485;-70
2022/03/31 01:56:08;;;;;;;20.05;9.48;;;;;;;;;;1773451;81;21025;-70
2022/03/31 01:58:35;;;;;;;17.50;8.85;;;;;;;;;;1723918;83;21092;-70
2022/03/31 02:01:01;;;;;;;17.85;9.00;;;;;;;;;;1773616;81;21012;-70
2022/03/31 02:03:28;;;;;;;17.07;8.83;;;;;;;;;;1735299;81;21135;-70
2022/03/31 02:05:54;;;;;;;14.80;9.28;;;;;;;;;;1757670;82;21072;-70
2022/03/31 02:08:21;;;;;;;16.55;8.43;;;;;;;;;;1757262;82;21068;-71
2022/03/31 02:10:49;;;;;;;16.27;9.18;;;;;;;;;;1757530;82;21068;-70
2022/03/31 02:13:16;;;;;;;15.88;8.15;;;;;;;;;;1757269;82;21040;-70
2022/03/31 02:15:44;;;;;;;14.15;8.33;;;;;;;;;;1757627;81;21132;-70
2022/03/31 02:18:11;;;;;;;15.23;9.15;;;;;;;;;;1757496;82;21048;-70
2022/03/31 02:20:39;;;;;;;13.65;7.30;;;;;;;;;;1757330;81;21041;-70
2022/03/31 02:23:05;;;;;;;19.55;8.38;;;;;;;;;;1757650;82;21017;-70
2022/03/31 02:25:34;;;;;;;15.05;8.15;;;;;;;;;;1757289;82;20986;-70
2022/03/31 02:28:00;;;;;;;14.03;8.03;;;;;;;;;;1757427;82;21068;-70
2022/03/31 02:30:28;;;;;;;17.15;8.78;;;;;;;;;;1757122;82;21025;-70
2022/03/31 02:32:54;;;;;;;15.05;8.15;;;;;;;;;;1757459;82;21004;-70
2022/03/31 02:35:20;;;;;;;13.40;7.10;;;;;;;;;;1757289;81;21080;-69
2022/03/31 02:37:46;;;;;;;14.75;7.90;;;;;;;;;;1757560;82;21017;-70
2022/03/31 02:40:14;;;;;;;14.58;7.47;;;;;;;;;;1757261;82;21543;-70
2022/03/31 02:42:42;;;;;;;16.93;8.83;;;;;;;;;;1757441;82;21309;-70
2022/03/31 02:45:09;;;;;;;14.33;8.48;;;;;;;;;;1757307;82;21091;-70
2022/03/31 02:47:35;;;;;;;14.38;7.95;;;;;;;;;;1757425;82;21014;-71
2022/03/31 02:50:04;;;;;;;12.25;6.50;;;;;;;;;;1757333;82;21040;-71
2022/03/31 02:55:24;;;;;;;12.07;6.90;;;;;;;;;;1756789;82;21076;-70
2022/03/31 02:57:43;;;;;;;15.98;8.75;;;;;;;;;;1757528;82;21021;-70
2022/03/31 03:00:10;;;;;;;16.40;9.40;;;;;;;;;;1757299;82;21044;-70
2022/03/31 03:02:37;;;;;;;15.75;9.23;;;;;;;;;;1757360;80;21032;-71
2022/03/31 03:05:04;;;;;;;14.90;8.78;;;;;;;;;;1754643;81;21072;-70
2022/03/31 03:07:30;;;;;;;19.55;10.98;;;;;;;;;;1753841;82;21114;-71
2022/03/31 03:09:57;;;;;;;18.10;9.10;;;;;;;;;;1753713;82;21016;-70
2022/03/31 03:12:25;;;;;;;17.57;9.83;;;;;;;;;;1754098;82;21029;-70
2022/03/31 03:14:51;;;;;;;12.70;7.72;;;;;;;;;;1753754;82;21044;-70
2022/03/31 03:17:18;;;;;;;16.85;10.08;;;;;;;;;;1754148;82;21063;-70
2022/03/31 03:19:45;;;;;;;16.12;7.08;;;;;;;;;;1753646;82;21037;-70
2022/03/31 03:22:11;;;;;;;16.02;9.48;;;;;;;;;;1754054;82;21060;-70
2022/03/31 03:24:38;;;;;;;14.03;7.08;;;;;;;;;;1753660;82;21037;-69
2022/03/31 03:27:04;;;;;;;17.30;8.85;;;;;;;;;;1753769;82;21025;-70
2022/03/31 03:29:30;;;;;;;14.00;8.18;;;;;;;;;;1753934;82;21091;-70
2022/03/31 03:31:57;;;;;;;14.83;7.78;;;;;;;;;;1753863;82;21496;-71
2022/03/31 03:34:24;;;;;;;14.43;7.62;;;;;;;;;;1753879;82;21560;-71
2022/03/31 03:36:50;;;;;;;15.55;8.73;;;;;;;;;;1753821;81;21520;-70
2022/03/31 03:39:16;;;;;;;15.80;9.78;;;;;;;;;;1753882;82;21063;-71
2022/03/31 03:41:43;;;;;;;12.73;7.05;;;;;;;;;;1753703;82;21018;-71
2022/03/31 03:44:09;;;;;;;11.68;6.55;;;;;;;;;;1754007;82;21041;-70
2022/03/31 03:46:37;;;;;;;15.23;8.08;;;;;;;;;;1753805;82;21045;-69
2022/03/31 03:49:03;;;;;;;17.42;9.70;;;;;;;;;;1754081;82;21073;-69
2022/03/31 03:51:31;;;;;;;16.35;9.63;;;;;;;;;;1753878;82;21085;-69
2022/03/31 03:53:58;;;;;;;16.20;9.10;;;;;;;;;;1754082;82;21021;-70
2022/03/31 03:56:24;;;;;;;15.28;8.48;;;;;;;;;;1753813;82;21025;-71
2022/03/31 03:58:50;;;;;;;16.55;8.85;;;;;;;;;;1754030;82;21048;-70
2022/03/31 04:01:16;;;;;;;14.60;8.03;;;;;;;;;;1753810;82;21061;-71
2022/03/31 04:03:43;;;;;;;15.83;9.25;;;;;;;;;;1753722;80;21069;-69
2022/03/31 04:06:11;;;;;;;13.75;7.25;;;;;;;;;;1753818;82;20997;-70
2022/03/31 04:08:38;;;;;;;12.00;7.78;;;;;;;;;;1753819;82;20993;-69
2022/03/31 04:11:06;;;;;;;15.00;7.60;;;;;;;;;;1753897;82;21065;-70
2022/03/31 04:13:33;;;;;;;13.70;7.12;;;;;;;;;;1753930;82;21084;-70
2022/03/31 04:16:01;;;;;;;14.18;7.62;;;;;;;;;;1753635;81;21101;-70
2022/03/31 04:18:27;;;;;;;14.07;7.37;;;;;;;;;;1753710;82;21033;-69
2022/03/31 04:20:53;;;;;;;13.22;6.95;;;;;;;;;;1753917;82;21096;-70
2022/03/31 04:23:20;;;;;;;11.20;6.33;;;;;;;;;;1753602;82;21100;-71
2022/03/31 04:25:47;;;;;;;15.58;7.00;;;;;;;;;;1753930;82;21029;-70
2022/03/31 04:28:13;;;;;;;12.98;7.90;;;;;;;;;;1753778;82;21053;-70
2022/03/31 04:30:39;;;;;;;11.35;6.55;;;;;;;;;;1753903;82;21069;-70
2022/03/31 04:33:06;;;;;;;14.35;8.13;;;;;;;;;;1754003;82;21060;-70
2022/03/31 04:35:32;;;;;;;12.43;7.00;;;;;;;;;;1753747;82;21073;-70
2022/03/31 04:37:58;;;;;;;13.32;7.58;;;;;;;;;;1753863;82;21033;-70
2022/03/31 04:40:24;;;;;;;14.23;8.98;;;;;;;;;;1753644;82;21088;-70
2022/03/31 04:42:52;;;;;;;9.35;5.95;;;;;;;;;;1753988;82;21026;-70
2022/03/31 04:45:18;;;;;;;13.40;7.60;;;;;;;;;;1753620;82;21025;-70
2022/03/31 04:47:44;;;;;;;13.58;8.90;;;;;;;;;;1753902;82;21519;-70
2022/03/31 04:50:12;;;;;;;18.37;8.03;;;;;;;;;;1753641;82;21045;-70
2022/03/31 04:52:38;;;;;;;14.33;8.50;;;;;;;;;;1753777;82;21540;-70
2022/03/31 04:55:06;;;;;;;15.63;8.35;;;;;;;;;;1753714;82;21073;-69
2022/03/31 04:59:27;;;;;;;13.10;7.30;;;;;;;;;;1801987;79;23229;-70
2022/03/31 05:01:53;;;;;;;16.10;8.63;;;;;;;;;;1761914;81;21005;-70
2022/03/31 05:04:19;;;;;;;15.23;8.73;;;;;;;;;;1736298;81;21156;-70
2022/03/31 05:06:46;;;;;;;14.25;7.12;;;;;;;;;;1728489;83;21075;-70
2022/03/31 05:09:13;;;;;;;14.75;7.78;;;;;;;;;;1728057;83;21056;-69
2022/03/31 05:11:41;;;;;;;12.15;6.95;;;;;;;;;;1728352;83;21027;-70
2022/03/31 05:14:08;;;;;;;13.38;7.55;;;;;;;;;;1728430;83;21067;-70
2022/03/31 05:16:36;;;;;;;14.70;7.05;;;;;;;;;;1728168;83;21095;-70
2022/03/31 05:19:03;;;;;;;16.65;8.40;;;;;;;;;;1728248;83;21052;-70
2022/03/31 05:21:31;;;;;;;13.35;7.70;;;;;;;;;;1727987;83;21139;-71
2022/03/31 05:23:57;;;;;;;13.80;8.10;;;;;;;;;;1728398;83;21018;-69
2022/03/31 05:26:23;;;;;;;12.45;7.45;;;;;;;;;;1728135;83;21043;-69
2022/03/31 05:28:49;;;;;;;13.53;7.83;;;;;;;;;;1728285;83;21056;-69
2022/03/31 05:31:16;;;;;;;13.18;7.80;;;;;;;;;;1728038;83;21012;-70
2022/03/31 05:33:42;;;;;;;11.33;7.12;;;;;;;;;;1728265;83;21070;-70
2022/03/31 05:36:09;;;;;;;13.53;7.78;;;;;;;;;;1728080;83;21005;-70
2022/03/31 05:38:37;;;;;;;14.35;7.92;;;;;;;;;;1728084;83;21084;-70
2022/03/31 05:41:03;;;;;;;14.75;7.92;;;;;;;;;;1728283;83;21043;-70
2022/03/31 05:43:30;;;;;;;12.25;6.97;;;;;;;;;;1728086;83;21044;-69
2022/03/31 05:45:57;;;;;;;13.95;7.60;;;;;;;;;;1728208;83;21044;-70
2022/03/31 05:48:24;;;;;;;14.98;8.00;;;;;;;;;;1728060;83;21032;-70
2022/03/31 05:50:50;;;;;;;14.33;8.43;;;;;;;;;;1728232;83;21098;-70
2022/03/31 05:53:17;;;;;;;12.78;7.25;;;;;;;;;;1728195;83;21076;-70
2022/03/31 05:55:45;;;;;;;11.15;6.80;;;;;;;;;;1728087;83;21000;-70
2022/03/31 05:58:11;;;;;;;14.30;7.15;;;;;;;;;;1722467;83;21566;-70
2022/03/31 06:00:38;;;;;;;13.15;7.62;;;;;;;;;;1712586;84;21048;-69
2022/03/31 06:03:06;;;;;;;14.70;8.28;;;;;;;;;;1712900;82;21060;-70
2022/03/31 06:05:33;;;;;;;13.05;7.72;;;;;;;;;;1712723;84;21075;-69
2022/03/31 06:08:01;;;;;;;10.95;7.10;;;;;;;;;;1712909;84;21001;-70
2022/03/31 06:10:28;;;;;;;12.18;6.97;;;;;;;;;;1712002;83;21107;-70
2022/03/31 06:12:57;;;;;;;13.25;7.83;;;;;;;;;;1712321;84;21087;-70
2022/03/31 06:15:25;;;;;;;12.13;7.40;;;;;;;;;;1712313;83;20985;-70
2022/03/31 06:17:53;;;;;;;13.18;7.40;;;;;;;;;;1712218;83;21123;-69
2022/03/31 06:20:21;;;;;;;11.63;7.30;;;;;;;;;;1712345;84;21486;-70
2022/03/31 06:22:49;;;;;;;12.98;8.00;;;;;;;;;;1712268;84;21383;-70
2022/03/31 06:25:17;;;;;;;12.37;7.75;;;;;;;;;;1712447;84;21559;-70
2022/03/31 06:27:44;;;;;;;12.35;8.73;;;;;;;;;;1712341;83;21024;-71
2022/03/31 06:30:12;;;;;;;12.07;7.83;;;;;;;;;;1712326;84;21508;-70
2022/03/31 06:32:40;;;;;;;13.88;7.65;;;;;;;;;;1712362;83;21036;-70
2022/03/31 06:35:11;;;;;;;10.98;6.80;;;;;;;;;;1712481;83;21512;-70
2022/03/31 06:37:39;;;;;;;14.68;8.63;;;;;;;;;;1712202;84;21036;-70
2022/03/31 06:40:06;;;;;;;13.78;8.40;;;;;;;;;;1712576;84;20989;-70
2022/03/31 06:42:34;;;;;;;12.07;7.70;;;;;;;;;;1712451;84;21017;-70
2022/03/31 06:45:02;;;;;;;11.50;7.60;;;;;;;;;;1690714;84;21507;-70
2022/03/31 06:47:29;;;;;;;15.78;7.83;;;;;;;;;;1712390;83;21583;-70
2022/03/31 06:49:57;;;;;;;17.48;9.85;;;;;;;;;;1712326;83;21111;-69
2022/03/31 06:52:25;;;;;;;11.93;8.30;;;;;;;;;;1712272;84;21539;-70
2022/03/31 06:54:52;;;;;;;12.43;9.23;;;;;;;;;;1712442;84;21029;-70
2022/03/31 06:57:21;;;;;;;13.48;9.53;;;;;;;;;;1712245;84;21036;-70
2022/03/31 06:59:49;;;;;;;15.63;9.53;;;;;;;;;;1719225;83;21032;-69
2022/03/31 07:02:17;;;;;;;17.35;10.10;;;;;;;;;;1720029;83;21536;-70
2022/03/31 07:04:45;;;;;;;12.20;7.67;;;;;;;;;;1691317;83;21637;-69
2022/03/31 07:07:13;;;;;;;13.58;8.28;;;;;;;;;;1720035;83;21227;-69
2022/03/31 07:09:42;;;;;;;13.65;9.13;;;;;;;;;;1719694;83;21048;-69
2022/03/31 07:12:13;;;;;;;11.75;8.55;;;;;;;;;;1720038;83;21040;-70
2022/03/31 07:14:41;;;;;;;16.85;10.00;;;;;;;;;;1692190;83;21063;-70
2022/03/31 07:17:09;;;;;;;13.25;8.75;;;;;;;;;;1691542;83;21697;-70
2022/03/31 07:19:37;;;;;;;13.78;9.70;;;;;;;;;;1691558;83;21610;-70
2022/03/31 07:22:05;;;;;;;14.15;9.23;;;;;;;;;;1719889;83;21634;-70
2022/03/31 07:24:33;;;;;;;15.38;10.98;;;;;;;;;;1719921;83;21634;-70
2022/03/31 07:27:01;;;;;;;13.50;10.03;;;;;;;;;;1691357;83;21484;-70
2022/03/31 07:29:28;;;;;;;14.40;9.93;;;;;;;;;;1719894;83;20996;-70
2022/03/31 07:31:56;;;;;;;17.92;11.63;;;;;;;;;;1719954;83;21039;-69
2022/03/31 07:34:24;;;;;;;16.50;10.95;;;;;;;;;;1719989;83;21519;-70
2022/03/31 07:36:54;;;;;;;15.72;12.45;;;;;;;;;;1719830;83;21052;-70
2022/03/31 07:39:23;;;;;;;21.48;13.30;;;;;;;;;;1719579;83;21040;-70
2022/03/31 07:41:50;;;;;;;17.40;13.20;;;;;;;;;;1719978;83;21242;-70
2022/03/31 07:44:18;;;;;;;17.82;10.82;;;;;;;;;;1719921;83;21506;-70
2022/03/31 07:46:46;;;;;;;19.32;13.65;;;;;;;;;;1719836;83;21534;-70
2022/03/31 07:49:16;;;;;;;18.77;13.03;;;;;;;;;;1719979;83;21020;-70
2022/03/31 07:51:44;;;;;;;18.20;12.05;;;;;;;;;;1719864;83;21008;-70
2022/03/31 07:54:13;;;;;;;17.52;12.43;;;;;;;;;;1719949;83;21005;-70
2022/03/31 07:56:41;;;;;;;20.35;13.48;;;;;;;;;;1720103;83;21203;-69
2022/03/31 07:59:09;;;;;;;19.80;12.53;;;;;;;;;;1715875;83;21290;-70
2022/03/31 08:01:37;;;;;;;18.20;12.37;;;;;;;;;;1712361;84;20977;-70
2022/03/31 08:04:06;;;;;;;18.20;12.88;;;;;;;;;;1712284;82;21650;-71
2022/03/31 08:06:36;;;;;;;17.75;12.60;;;;;;;;;;1712487;83;21060;-69
2022/03/31 08:09:07;;;;;;;19.20;13.05;;;;;;;;;;1712092;83;21068;-70
2022/03/31 08:11:36;;;;;;;17.02;11.40;;;;;;;;;;1712459;84;21520;-70
2022/03/31 08:14:04;;;;;;;19.10;12.75;;;;;;;;;;1690706;84;21548;-69
2022/03/31 08:16:35;;;;;;;16.48;11.80;;;;;;;;;;1712278;83;21520;-69
2022/03/31 08:19:04;;;;;;;18.45;14.05;;;;;;;;;;1712176;84;21052;-69
2022/03/31 08:21:32;;;;;;;16.30;10.13;;;;;;;;;;1712324;84;21028;-70
2022/03/31 08:23:59;;;;;;;17.42;12.65;;;;;;;;;;1712529;84;21523;-70
2022/03/31 08:26:26;;;;;;;16.70;11.28;;;;;;;;;;1712198;84;20980;-70
2022/03/31 08:28:57;;;;;;;16.93;13.10;;;;;;;;;;1712238;84;21032;-70
2022/03/31 08:31:27;;;;;;;18.77;11.35;;;;;;;;;;1690714;84;21492;-70
2022/03/31 08:33:58;;;;;;;18.62;12.75;;;;;;;;;;1712179;83;21084;-70
2022/03/31 08:36:26;;;;;;;17.82;12.45;;;;;;;;;;1712294;84;21511;-70
2022/03/31 08:38:56;;;;;;;16.57;12.73;;;;;;;;;;1712115;84;21040;-70
2022/03/31 08:41:26;;;;;;;15.75;10.98;;;;;;;;;;1712141;84;21574;-70
2022/03/31 08:43:56;;;;;;;17.92;13.70;;;;;;;;;;1690712;84;21552;-70
2022/03/31 08:46:25;;;;;;;17.92;10.90;;;;;;;;;;1712148;84;21563;-70
2022/03/31 08:48:56;;;;;;;16.87;13.05;;;;;;;;;;1712203;84;21536;-69
2022/03/31 08:51:24;;;;;;;17.02;10.70;;;;;;;;;;1690770;84;21041;-69
2022/03/31 08:53:53;;;;;;;19.02;13.93;;;;;;;;;;1712181;83;20973;-69
2022/03/31 08:56:24;;;;;;;19.82;12.82;;;;;;;;;;1712251;84;21017;-69
2022/03/31 08:58:54;;;;;;;17.62;12.90;;;;;;;;;;1714320;83;21654;-69
2022/03/31 09:01:24;;;;;;;17.20;13.55;;;;;;;;;;1719867;83;21530;-70
2022/03/31 09:03:53;;;;;;;18.35;13.22;;;;;;;;;;1719742;82;21589;-69
2022/03/31 09:06:24;;;;;;;19.37;13.18;;;;;;;;;;1720002;83;21033;-69
2022/03/31 09:09:02;;;;;;;19.70;13.55;;;;;;;;;;1691621;83;21037;-70
2022/03/31 09:11:33;;;;;;;20.50;14.95;;;;;;;;;;1719948;83;21017;-70
2022/03/31 09:14:04;;;;;;;17.65;12.53;;;;;;;;;;1720171;83;21000;-70
2022/03/31 09:16:44;;;;;;;18.80;14.75;;;;;;;;;;1719974;83;21026;-70
2022/03/31 09:19:11;;;;;;;18.45;14.03;;;;;;;;;;1718705;83;21072;-70
2022/03/31 09:21:50;;;;;;;19.10;13.00;;;;;;;;;;1720057;83;21001;-70
2022/03/31 09:24:19;;;;;;;19.52;12.60;;;;;;;;;;1719809;83;21222;-70
2022/03/31 09:26:48;;;;;;;20.05;14.80;;;;;;;;;;1691869;83;21023;-70
2022/03/31 09:29:19;;;;;;;18.67;11.83;;;;;;;;;;1719991;83;21000;-70
2022/03/31 09:31:48;;;;;;;18.77;13.15;;;;;;;;;;1719915;83;21020;-70
2022/03/31 09:34:15;;;;;;;17.77;11.50;;;;;;;;;;1691496;83;21551;-70
2022/03/31 09:36:44;;;;;;;18.27;12.82;;;;;;;;;;1719808;83;21052;-70
2022/03/31 09:39:17;;;;;;;16.97;12.10;;;;;;;;;;1719934;83;21571;-70
2022/03/31 09:41:48;;;;;;;18.00;13.60;;;;;;;;;;1691380;83;20976;-70
2022/03/31 09:44:16;;;;;;;17.57;9.88;;;;;;;;;;1719845;83;21036;-71
2022/03/31 09:46:44;;;;;;;16.37;11.88;;;;;;;;;;1691686;83;21075;-70
2022/03/31 09:49:13;;;;;;;16.42;10.90;;;;;;;;;;1720051;83;21547;-70
2022/03/31 09:51:43;;;;;;;17.45;11.28;;;;;;;;;;1719861;83;21036;-71
2022/03/31 09:54:11;;;;;;;16.20;11.22;;;;;;;;;;1720041;83;21258;-70
2022/03/31 09:56:41;;;;;;;17.02;12.68;;;;;;;;;;1691863;83;21329;-69
2022/03/31 09:59:09;;;;;;;16.60;11.70;;;;;;;;;;1717458;83;21040;-70
2022/03/31 10:01:40;;;;;;;18.12;12.68;;;;;;;;;;1712291;83;20997;-70
2022/03/31 10:04:07;;;;;;;15.85;11.85;;;;;;;;;;1712300;82;21100;-69
2022/03/31 10:06:35;;;;;;;16.80;11.85;;;;;;;;;;1690802;84;21519;-71
2022/03/31 10:09:05;;;;;;;16.20;12.80;;;;;;;;;;1712528;84;20972;-70
2022/03/31 10:11:42;;;;;;;16.37;12.28;;;;;;;;;;1712206;83;21032;-70
2022/03/31 10:14:16;;;;;;;16.12;11.25;;;;;;;;;;1712433;83;21611;-70
2022/03/31 10:16:48;;;;;;;18.37;12.55;;;;;;;;;;1712094;84;21076;-69
2022/03/31 10:19:27;;;;;;;16.02;11.93;;;;;;;;;;1691108;84;21016;-69
2022/03/31 10:21:59;;;;;;;16.80;10.85;;;;;;;;;;1690552;84;21088;-69
2022/03/31 10:24:45;;;;;;;16.57;12.70;;;;;;;;;;1712394;84;21497;-69
2022/03/31 10:27:17;;;;;;;16.82;12.37;;;;;;;;;;1712031;84;21001;-69
2022/03/31 10:29:46;;;;;;;16.05;11.90;;;;;;;;;;1711614;84;21032;-68
2022/03/31 10:32:17;;;;;;;17.10;11.12;;;;;;;;;;1712279;84;21035;-69
2022/03/31 10:34:48;;;;;;;15.90;10.35;;;;;;;;;;1691108;84;21531;-69
2022/03/31 10:37:17;;;;;;;15.43;11.50;;;;;;;;;;1712498;83;21069;-69
2022/03/31 10:39:49;;;;;;;13.62;10.43;;;;;;;;;;1712382;84;21091;-69
2022/03/31 10:42:16;;;;;;;15.70;11.55;;;;;;;;;;1712355;83;21029;-69
2022/03/31 10:44:44;;;;;;;14.28;11.30;;;;;;;;;;1712482;84;21016;-69
2022/03/31 10:47:12;;;;;;;18.57;10.68;;;;;;;;;;1712462;84;21009;-69
2022/03/31 10:49:42;;;;;;;17.20;12.03;;;;;;;;;;1712349;83;21116;-69
2022/03/31 10:52:14;;;;;;;14.03;10.25;;;;;;;;;;1710798;84;21124;-69
2022/03/31 10:54:41;;;;;;;16.07;11.57;;;;;;;;;;1712571;84;21528;-69
2022/03/31 10:57:11;;;;;;;15.93;10.72;;;;;;;;;;1712334;84;21028;-69
2022/03/31 10:59:41;;;;;;;11.78;9.23;;;;;;;;;;1715426;83;21113;-69
2022/03/31 11:02:12;;;;;;;14.95;10.93;;;;;;;;;;1720441;83;21012;-69
2022/03/31 11:04:51;;;;;;;16.42;9.35;;;;;;;;;;1719908;82;21091;-71
2022/03/31 11:07:26;;;;;;;15.53;10.65;;;;;;;;;;1720111;83;21009;-69
2022/03/31 11:09:53;;;;;;;13.72;9.93;;;;;;;;;;1718572;83;21032;-69
2022/03/31 11:12:26;;;;;;;12.43;9.53;;;;;;;;;;1719155;83;21052;-69
2022/03/31 11:15:00;;;;;;;16.05;10.82;;;;;;;;;;1719955;83;21067;-69
2022/03/31 11:17:28;;;;;;;;;;;;;;;;;;1722482;83;21567;-68
2022/03/31 11:19:56;;;;;;;12.93;9.80;;;;;;;;;;1720012;83;20166;-69
2022/03/31 11:22:26;;;;;;;13.48;9.90;;;;;;;;;;1719921;83;21040;-69
2022/03/31 11:24:56;;;;;;;13.15;9.63;;;;;;;;;;1719894;83;21078;-69
2022/03/31 11:27:36;;;;;;;13.13;9.50;;;;;;;;;;1692018;83;21020;-70
2022/03/31 11:30:11;;;;;;;14.83;9.30;;;;;;;;;;1719799;83;21066;-70
2022/03/31 11:32:40;;;;;;;12.60;8.93;;;;;;;;;;1720073;83;21016;-70
2022/03/31 11:35:12;;;;;;;15.08;8.85;;;;;;;;;;1719823;83;21060;-70
2022/03/31 11:37:48;;;;;;;14.23;10.13;;;;;;;;;;1720043;83;21623;-69
2022/03/31 11:40:21;;;;;;;14.85;9.28;;;;;;;;;;1719802;83;21560;-70
2022/03/31 11:42:50;;;;;;;13.63;10.10;;;;;;;;;;1720155;83;21004;-70
2022/03/31 11:45:28;;;;;;;14.18;9.60;;;;;;;;;;1720011;83;21316;-70
2022/03/31 11:47:57;;;;;;;12.00;9.10;;;;;;;;;;1719972;83;21492;-70
2022/03/31 11:50:26;;;;;;;11.40;8.38;;;;;;;;;;1719951;83;21559;-70
2022/03/31 11:52:54;;;;;;;13.60;8.43;;;;;;;;;;1720058;83;21523;-69
2022/03/31 11:55:21;;;;;;;12.15;8.03;;;;;;;;;;1720146;83;21064;-69
2022/03/31 11:57:52;;;;;;;12.63;7.87;;;;;;;;;;1720244;83;21059;-70
2022/03/31 12:00:22;;;;;;;10.95;7.42;;;;;;;;;;1715513;83;21032;-69
2022/03/31 12:03:11;;;;;;;14.05;8.15;;;;;;;;;;1712504;82;21060;-70
2022/03/31 12:05:35;;;;;;;11.90;6.87;;;;;;;;;;1711481;84;21028;-69
2022/03/31 12:08:05;;;;;;;10.95;6.90;;;;;;;;;;1712455;84;21012;-69
2022/03/31 12:10:34;;;;;;;11.85;7.20;;;;;;;;;;1712123;83;21052;-69
2022/03/31 12:13:05;;;;;;;9.80;6.72;;;;;;;;;;1712066;83;21062;-69
2022/03/31 12:15:33;;;;;;;11.93;6.78;;;;;;;;;;1712340;83;21076;-69
2022/03/31 12:18:03;;;;;;;11.00;7.47;;;;;;;;;;1712335;84;21000;-69
2022/03/31 12:20:33;;;;;;;10.08;6.47;;;;;;;;;;1712115;84;21663;-69
2022/03/31 12:23:01;;;;;;;11.08;7.70;;;;;;;;;;1712324;84;21009;-71
2022/03/31 12:25:30;;;;;;;12.58;8.15;;;;;;;;;;1712213;84;21088;-71
2022/03/31 12:27:58;;;;;;;10.95;8.43;;;;;;;;;;1712260;83;21021;-71
2022/03/31 12:30:28;;;;;;;11.60;8.73;;;;;;;;;;1712310;84;21052;-70
2022/03/31 12:32:57;;;;;;;11.12;7.92;;;;;;;;;;1710852;84;21567;-70
2022/03/31 12:35:26;;;;;;;11.08;7.90;;;;;;;;;;1712295;84;21060;-69
2022/03/31 12:37:55;;;;;;;9.88;7.15;;;;;;;;;;1712202;84;21009;-69
2022/03/31 12:40:25;;;;;;;9.08;6.87;;;;;;;;;;1712212;84;21037;-69
2022/03/31 12:42:53;;;;;;;8.45;6.85;;;;;;;;;;1691028;84;21020;-69
2022/03/31 12:45:21;;;;;;;8.65;6.58;;;;;;;;;;1712168;83;21231;-69
2022/03/31 12:47:49;;;;;;;10.93;6.50;;;;;;;;;;1712289;83;21650;-69
2022/03/31 12:50:22;;;;;;;9.95;6.67;;;;;;;;;;1712004;83;20993;-70
2022/03/31 12:52:53;;;;;;;9.78;7.30;;;;;;;;;;1712263;83;20977;-69
2022/03/31 12:55:28;;;;;;;8.65;6.37;;;;;;;;;;1712319;83;21484;-70
2022/03/31 12:57:56;;;;;;;9.15;6.75;;;;;;;;;;1710945;83;21051;-70
2022/03/31 13:00:26;;;;;;;10.30;6.95;;;;;;;;;;1715973;83;21021;-70
2022/03/31 13:02:53;;;;;;;11.08;7.53;;;;;;;;;;1719856;82;21118;-69
2022/03/31 13:05:21;;;;;;;12.15;8.98;;;;;;;;;;1719890;83;21687;-70
2022/03/31 13:07:53;;;;;;;19.00;11.60;;;;;;;;;;1691855;83;21052;-70
2022/03/31 13:10:22;;;;;;;46.53;28.90;;;;;;;;;;1719994;83;21063;-70
2022/03/31 13:12:50;;;;;;;19.45;12.63;;;;;;;;;;1719941;83;20996;-70
2022/03/31 13:15:21;;;;;;;13.32;8.65;;;;;;;;;;1691794;83;21036;-70
2022/03/31 13:17:50;;;;;;;11.20;6.33;;;;;;;;;;1720004;83;21087;-70
2022/03/31 13:20:19;;;;;;;8.58;6.47;;;;;;;;;;1720082;83;21609;-71
2022/03/31 13:22:47;;;;;;;7.70;6.25;;;;;;;;;;1720126;83;21032;-71
2022/03/31 13:25:15;;;;;;;10.68;7.22;;;;;;;;;;1720346;83;21477;-71
2022/03/31 13:27:42;;;;;;;7.62;6.45;;;;;;;;;;1720034;83;21055;-70
2022/03/31 13:30:11;;;;;;;10.78;7.22;;;;;;;;;;1720116;83;21051;-70
2022/03/31 13:32:40;;;;;;;8.43;6.33;;;;;;;;;;1720278;83;21016;-70
2022/03/31 13:35:06;;;;;;;8.88;6.05;;;;;;;;;;1720179;83;21477;-70
2022/03/31 13:37:34;;;;;;;9.38;6.75;;;;;;;;;;1720118;83;21543;-70
2022/03/31 13:40:06;;;;;;;11.43;7.62;;;;;;;;;;1720290;83;21008;-70
2022/03/31 13:42:34;;;;;;;8.05;6.35;;;;;;;;;;1720222;83;21024;-70
2022/03/31 13:45:02;;;;;;;9.40;6.83;;;;;;;;;;1720222;83;20972;-70
2022/03/31 13:47:31;;;;;;;8.78;6.08;;;;;;;;;;1720102;83;21032;-69
2022/03/31 13:49:59;;;;;;;8.05;6.10;;;;;;;;;;1720025;83;21032;-69
2022/03/31 13:52:27;;;;;;;8.50;5.92;;;;;;;;;;1720025;83;21618;-69
2022/03/31 13:54:56;;;;;;;10.80;9.38;;;;;;;;;;1720140;83;21000;-69
2022/03/31 14:02:42;;;;;;;16.97;12.57;;;;;;;;;;1684433;82;21235;-69
2022/03/31 14:05:09;;;;;;;19.67;14.60;;;;;;;;;;1712460;84;21614;-69
2022/03/31 14:07:41;;;;;;;18.42;13.72;;;;;;;;;;1712344;83;21099;-69
2022/03/31 14:10:11;;;;;;;21.12;14.23;;;;;;;;;;1712408;83;21112;-70
2022/03/31 14:12:40;;;;;;;22.05;16.50;;;;;;;;;;1712011;84;21052;-70
2022/03/31 14:15:09;;;;;;;23.38;16.65;;;;;;;;;;1712314;83;21027;-69
2022/03/31 14:17:37;;;;;;;21.42;14.95;;;;;;;;;;1712140;84;21092;-69
2022/03/31 14:20:07;;;;;;;24.30;16.77;;;;;;;;;;1712235;84;21068;-71
2022/03/31 14:22:37;;;;;;;19.27;13.85;;;;;;;;;;1712475;84;21020;-71
2022/03/31 14:25:07;;;;;;;20.35;15.85;;;;;;;;;;1712252;83;21123;-69
2022/03/31 14:27:36;;;;;;;23.18;15.72;;;;;;;;;;1712401;84;21432;-70
2022/03/31 14:30:05;;;;;;;21.25;14.80;;;;;;;;;;1712228;84;21016;-70
2022/03/31 14:32:33;;;;;;;18.23;11.60;;;;;;;;;;1712362;83;20989;-70
2022/03/31 14:35:01;;;;;;;22.50;14.35;;;;;;;;;;1712470;84;21008;-70
2022/03/31 14:37:28;;;;;;;19.20;14.47;;;;;;;;;;1690744;84;21048;-70
2022/03/31 14:39:57;;;;;;;25.32;15.55;;;;;;;;;;1712274;83;21480;-71
2022/03/31 14:42:24;;;;;;;22.07;15.23;;;;;;;;;;1712368;84;21158;-70
2022/03/31 14:44:52;;;;;;;20.97;14.98;;;;;;;;;;1712382;83;21028;-70